sensor_id;sensor_type;location;lat;lon;timestamp;pressure;altitude;pressure_sealevel;temperature;humidity
8717;BME280;4395;48.554;8.820;2024-01-30T00:00:41;97172.63;;;4.75;62.46
8717;BME280;4395;48.554;8.820;2024-01-30T00:02:45;97176.75;;;4.69;62.50
8717;BME280;4395;48.554;8.820;2024-01-30T00:04:48;97181.72;;;4.70;62.67
8717;BME280;4395;48.554;8.820;2024-01-30T00:06:51;97182.91;;;4.68;63.03
8717;BME280;4395;48.554;8.820;2024-01-30T00:08:55;97178.91;;;4.65;62.71
8717;BME280;4395;48.554;8.820;2024-01-30T00:10:58;97183.63;;;4.62;62.86
8717;BME280;4395;48.554;8.820;2024-01-30T00:13:01;97183.63;;;4.62;62.86
8717;BME280;4395;48.554;8.820;2024-01-30T00:15:04;97178.81;;;4.59;62.68
8717;BME280;4395;48.554;8.820;2024-01-30T00:17:10;97187.91;;;4.55;62.61
8717;BME280;4395;48.554;8.820;2024-01-30T00:19:14;97177.97;;;4.52;62.22
8717;BME280;4395;48.554;8.820;2024-01-30T00:21:17;97180.06;;;4.42;62.86
8717;BME280;4395;48.554;8.820;2024-01-30T00:23:20;97180.84;;;4.42;62.78
8717;BME280;4395;48.554;8.820;2024-01-30T00:25:22;97177.81;;;4.39;63.11
8717;BME280;4395;48.554;8.820;2024-01-30T00:27:25;97175.06;;;4.40;62.88
8717;BME280;4395;48.554;8.820;2024-01-30T00:29:29;97173.91;;;4.43;63.35
8717;BME280;4395;48.554;8.820;2024-01-30T00:31:35;97177.47;;;4.42;63.25
8717;BME280;4395;48.554;8.820;2024-01-30T00:33:42;97171.56;;;4.48;63.03
8717;BME280;4395;48.554;8.820;2024-01-30T00:35:47;97175.16;;;4.47;62.76
8717;BME280;4395;48.554;8.820;2024-01-30T00:37:49;97179.69;;;4.45;62.45
8717;BME280;4395;48.554;8.820;2024-01-30T00:39:52;97179.44;;;4.40;62.63
8717;BME280;4395;48.554;8.820;2024-01-30T00:41:54;97177.78;;;4.32;62.78
8717;BME280;4395;48.554;8.820;2024-01-30T00:43:57;97174.94;;;4.27;62.47
8717;BME280;4395;48.554;8.820;2024-01-30T00:45:59;97184.78;;;4.23;63.29
8717;BME280;4395;48.554;8.820;2024-01-30T00:48:02;97178.78;;;4.16;63.53
8717;BME280;4395;48.554;8.820;2024-01-30T00:50:05;97179.94;;;4.14;64.00
8717;BME280;4395;48.554;8.820;2024-01-30T00:52:10;97182.69;;;4.12;63.89
8717;BME280;4395;48.554;8.820;2024-01-30T00:54:13;97177.34;;;4.14;64.28
8717;BME280;4395;48.554;8.820;2024-01-30T00:56:15;97180.19;;;4.19;64.49
8717;BME280;4395;48.554;8.820;2024-01-30T00:58:19;97173.69;;;4.23;64.18
8717;BME280;4395;48.554;8.820;2024-01-30T01:00:22;97174.13;;;4.26;64.15
8717;BME280;4395;48.554;8.820;2024-01-30T01:02:30;97173.31;;;4.26;63.77
8717;BME280;4395;48.554;8.820;2024-01-30T01:04:33;97176.88;;;4.25;64.22
8717;BME280;4395;48.554;8.820;2024-01-30T01:06:36;97178.47;;;4.26;63.75
8717;BME280;4395;48.554;8.820;2024-01-30T01:08:39;97174.13;;;4.26;63.13
8717;BME280;4395;48.554;8.820;2024-01-30T01:10:42;97175.84;;;4.19;62.13
8717;BME280;4395;48.554;8.820;2024-01-30T01:12:45;97178.16;;;4.14;62.52
8717;BME280;4395;48.554;8.820;2024-01-30T01:14:47;97180.09;;;4.12;62.32
8717;BME280;4395;48.554;8.820;2024-01-30T01:16:50;97179.53;;;4.10;62.37
8717;BME280;4395;48.554;8.820;2024-01-30T01:18:53;97168.81;;;4.13;62.06
8717;BME280;4395;48.554;8.820;2024-01-30T01:20:56;97174.88;;;4.06;62.20
8717;BME280;4395;48.554;8.820;2024-01-30T01:22:59;97180.84;;;4.06;62.61
8717;BME280;4395;48.554;8.820;2024-01-30T01:25:04;97175.06;;;4.04;62.99
8717;BME280;4395;48.554;8.820;2024-01-30T01:27:08;97174.72;;;4.07;63.31
8717;BME280;4395;48.554;8.820;2024-01-30T01:29:11;97184.28;;;4.13;63.43
8717;BME280;4395;48.554;8.820;2024-01-30T01:31:14;97175.56;;;4.14;63.31
8717;BME280;4395;48.554;8.820;2024-01-30T01:33:16;97187.94;;;4.19;62.74
8717;BME280;4395;48.554;8.820;2024-01-30T01:35:19;97185.53;;;4.17;62.63
8717;BME280;4395;48.554;8.820;2024-01-30T01:37:21;97181.97;;;4.18;62.74
8717;BME280;4395;48.554;8.820;2024-01-30T01:39:28;97178.44;;;4.19;62.61
8717;BME280;4395;48.554;8.820;2024-01-30T01:41:33;97186.16;;;4.19;62.37
8717;BME280;4395;48.554;8.820;2024-01-30T01:43:35;97184.28;;;4.13;62.91
8717;BME280;4395;48.554;8.820;2024-01-30T01:45:39;97181.09;;;4.11;63.15
8717;BME280;4395;48.554;8.820;2024-01-30T01:47:42;97178.72;;;4.10;62.85
8717;BME280;4395;48.554;8.820;2024-01-30T01:49:47;97178.28;;;4.06;62.58
8717;BME280;4395;48.554;8.820;2024-01-30T01:51:51;97176.22;;;4.02;62.93
8717;BME280;4395;48.554;8.820;2024-01-30T01:53:58;97172.59;;;3.96;62.90
8717;BME280;4395;48.554;8.820;2024-01-30T01:56:05;97171.34;;;3.92;63.34
8717;BME280;4395;48.554;8.820;2024-01-30T01:58:09;97175.25;;;3.88;63.67
8717;BME280;4395;48.554;8.820;2024-01-30T02:00:14;97172.44;;;3.83;63.69
8717;BME280;4395;48.554;8.820;2024-01-30T02:02:17;97169.25;;;3.81;63.74
8717;BME280;4395;48.554;8.820;2024-01-30T02:04:21;97167.28;;;3.83;63.13
8717;BME280;4395;48.554;8.820;2024-01-30T02:06:25;97162.84;;;3.77;63.78
8717;BME280;4395;48.554;8.820;2024-01-30T02:08:28;97169.59;;;3.78;63.85
8717;BME280;4395;48.554;8.820;2024-01-30T02:10:31;97163.81;;;3.76;64.16
8717;BME280;4395;48.554;8.820;2024-01-30T02:12:33;97170.56;;;3.77;64.08
8717;BME280;4395;48.554;8.820;2024-01-30T02:14:45;97165.78;;;3.74;64.31
8717;BME280;4395;48.554;8.820;2024-01-30T02:16:48;97170.56;;;3.77;64.64
8717;BME280;4395;48.554;8.820;2024-01-30T02:18:51;97168.97;;;3.76;64.50
8717;BME280;4395;48.554;8.820;2024-01-30T02:20:56;97168.19;;;3.60;64.52
8717;BME280;4395;48.554;8.820;2024-01-30T02:23:04;97160.97;;;3.56;64.67
8717;BME280;4395;48.554;8.820;2024-01-30T02:25:08;97164.97;;;3.44;64.64
8717;BME280;4395;48.554;8.820;2024-01-30T02:27:09;97166.75;;;3.43;65.00
8717;BME280;4395;48.554;8.820;2024-01-30T02:29:12;97165.94;;;3.43;64.50
8717;BME280;4395;48.554;8.820;2024-01-30T02:31:24;97169.41;;;3.35;65.27
8717;BME280;4395;48.554;8.820;2024-01-30T02:33:27;97172.63;;;3.37;65.24
8717;BME280;4395;48.554;8.820;2024-01-30T02:35:30;97165.50;;;3.39;64.95
8717;BME280;4395;48.554;8.820;2024-01-30T02:37:35;97174.03;;;3.40;65.30
8717;BME280;4395;48.554;8.820;2024-01-30T02:39:39;97176.59;;;3.40;64.82
8717;BME280;4395;48.554;8.820;2024-01-30T02:41:41;97167.47;;;3.37;64.97
8717;BME280;4395;48.554;8.820;2024-01-30T02:43:44;97171.72;;;3.30;65.19
8717;BME280;4395;48.554;8.820;2024-01-30T02:45:47;97174.63;;;3.27;65.59
8717;BME280;4395;48.554;8.820;2024-01-30T02:47:50;97168.25;;;3.23;66.01
8717;BME280;4395;48.554;8.820;2024-01-30T02:49:53;97175.59;;;3.26;65.80
8717;BME280;4395;48.554;8.820;2024-01-30T02:51:57;97179.53;;;3.22;66.12
8717;BME280;4395;48.554;8.820;2024-01-30T02:54:00;97163.63;;;3.18;66.05
8717;BME280;4395;48.554;8.820;2024-01-30T02:56:05;97162.47;;;3.21;65.77
8717;BME280;4395;48.554;8.820;2024-01-30T02:58:11;97166.47;;;3.23;65.46
8717;BME280;4395;48.554;8.820;2024-01-30T03:00:14;97165.13;;;3.13;65.79
8717;BME280;4395;48.554;8.820;2024-01-30T03:02:17;97166.75;;;3.14;65.89
8717;BME280;4395;48.554;8.820;2024-01-30T03:04:20;97170.72;;;3.16;65.90
8717;BME280;4395;48.554;8.820;2024-01-30T03:06:23;97170.72;;;3.16;65.83
8717;BME280;4395;48.554;8.820;2024-01-30T03:08:25;97171.50;;;3.17;65.85
8717;BME280;4395;48.554;8.820;2024-01-30T03:10:28;97170.53;;;3.18;66.01
8717;BME280;4395;48.554;8.820;2024-01-30T03:12:33;97168.31;;;3.15;65.50
8717;BME280;4395;48.554;8.820;2024-01-30T03:14:36;97159.34;;;3.11;65.74
8717;BME280;4395;48.554;8.820;2024-01-30T03:16:39;97163.53;;;3.12;65.75
8717;BME280;4395;48.554;8.820;2024-01-30T03:18:42;97160.03;;;3.05;65.29
8717;BME280;4395;48.554;8.820;2024-01-30T03:20:44;97161.91;;;2.96;65.50
8717;BME280;4395;48.554;8.820;2024-01-30T03:22:47;97167.38;;;2.93;66.01
8717;BME280;4395;48.554;8.820;2024-01-30T03:24:50;97168.59;;;2.82;66.31
8717;BME280;4395;48.554;8.820;2024-01-30T03:26:53;97166.19;;;2.81;65.88
8717;BME280;4395;48.554;8.820;2024-01-30T03:28:57;97166.53;;;2.78;66.25
8717;BME280;4395;48.554;8.820;2024-01-30T03:31:00;97161.03;;;2.81;66.07
8717;BME280;4395;48.554;8.820;2024-01-30T03:33:04;97156.03;;;2.87;65.64
8717;BME280;4395;48.554;8.820;2024-01-30T03:35:07;97155.31;;;2.94;64.71
8717;BME280;4395;48.554;8.820;2024-01-30T03:37:10;97153.72;;;2.93;65.21
8717;BME280;4395;48.554;8.820;2024-01-30T03:39:12;97165.28;;;2.97;65.50
8717;BME280;4395;48.554;8.820;2024-01-30T03:41:15;97164.94;;;3.00;65.47
8717;BME280;4395;48.554;8.820;2024-01-30T03:43:18;97163.25;;;3.07;65.94
8717;BME280;4395;48.554;8.820;2024-01-30T03:45:22;97160.66;;;3.07;66.32
8717;BME280;4395;48.554;8.820;2024-01-30T03:47:25;97163.88;;;3.09;66.18
8717;BME280;4395;48.554;8.820;2024-01-30T03:49:28;97162.44;;;3.06;66.13
8717;BME280;4395;48.554;8.820;2024-01-30T03:51:31;97151.53;;;3.04;65.63
8717;BME280;4395;48.554;8.820;2024-01-30T03:53:34;97155.31;;;2.94;66.05
8717;BME280;4395;48.554;8.820;2024-01-30T03:55:37;97160.47;;;2.94;66.37
8717;BME280;4395;48.554;8.820;2024-01-30T03:57:39;97154.19;;;2.96;66.32
8717;BME280;4395;48.554;8.820;2024-01-30T03:59:42;97154.09;;;2.89;65.94
8717;BME280;4395;48.554;8.820;2024-01-30T04:01:47;97150.59;;;2.82;65.82
8717;BME280;4395;48.554;8.820;2024-01-30T04:03:50;97148.03;;;2.82;66.36
8717;BME280;4395;48.554;8.820;2024-01-30T04:05:52;97157.84;;;2.79;66.26
8717;BME280;4395;48.554;8.820;2024-01-30T04:07:55;97162.81;;;2.80;66.33
8717;BME280;4395;48.554;8.820;2024-01-30T04:09:58;97168.94;;;2.79;67.02
8717;BME280;4395;48.554;8.820;2024-01-30T04:12:01;97166.03;;;2.82;66.55
8717;BME280;4395;48.554;8.820;2024-01-30T04:14:04;97171.81;;;2.84;66.72
8717;BME280;4395;48.554;8.820;2024-01-30T04:16:07;97161.50;;;2.84;66.99
8717;BME280;4395;48.554;8.820;2024-01-30T04:18:11;97166.66;;;2.84;66.80
8717;BME280;4395;48.554;8.820;2024-01-30T04:20:14;97163.75;;;2.87;66.11
8717;BME280;4395;48.554;8.820;2024-01-30T04:22:18;97166.53;;;2.78;65.89
8717;BME280;4395;48.554;8.820;2024-01-30T04:24:21;97167.69;;;2.75;66.33
8717;BME280;4395;48.554;8.820;2024-01-30T04:26:24;97168.34;;;2.77;65.98
8717;BME280;4395;48.554;8.820;2024-01-30T04:28:26;97170.53;;;2.80;65.97
8717;BME280;4395;48.554;8.820;2024-01-30T04:30:29;97159.97;;;2.75;65.76
8717;BME280;4395;48.554;8.820;2024-01-30T04:32:32;97167.88;;;2.74;66.34
8717;BME280;4395;48.554;8.820;2024-01-30T04:34:37;97174.78;;;2.73;66.64
8717;BME280;4395;48.554;8.820;2024-01-30T04:36:44;97177.34;;;2.73;66.74
8717;BME280;4395;48.554;8.820;2024-01-30T04:38:47;97168.72;;;2.66;66.67
8717;BME280;4395;48.554;8.820;2024-01-30T04:40:49;97173.84;;;2.66;66.81
8717;BME280;4395;48.554;8.820;2024-01-30T04:42:51;97165.53;;;2.64;65.51
8717;BME280;4395;48.554;8.820;2024-01-30T04:44:54;97169.13;;;2.55;66.27
8717;BME280;4395;48.554;8.820;2024-01-30T04:46:57;97173.91;;;2.58;66.61
8717;BME280;4395;48.554;8.820;2024-01-30T04:49:02;97166.53;;;2.55;67.13
8717;BME280;4395;48.554;8.820;2024-01-30T04:51:07;97173.25;;;2.64;67.04
8717;BME280;4395;48.554;8.820;2024-01-30T04:53:10;97167.75;;;2.67;67.52
8717;BME280;4395;48.554;8.820;2024-01-30T04:55:13;97162.00;;;2.65;67.43
8717;BME280;4395;48.554;8.820;2024-01-30T04:57:16;97164.91;;;2.62;67.31
8717;BME280;4395;48.554;8.820;2024-01-30T04:59:18;97165.00;;;2.69;67.31
8717;BME280;4395;48.554;8.820;2024-01-30T05:01:20;97162.00;;;2.65;66.49
8717;BME280;4395;48.554;8.820;2024-01-30T05:03:23;97165.25;;;2.59;66.70
8717;BME280;4395;48.554;8.820;2024-01-30T05:05:26;97161.75;;;2.52;66.92
8717;BME280;4395;48.554;8.820;2024-01-30T05:07:30;97170.78;;;2.48;67.20
8717;BME280;4395;48.554;8.820;2024-01-30T05:09:33;97164.03;;;2.47;67.06
8717;BME280;4395;48.554;8.820;2024-01-30T05:11:37;97174.31;;;2.47;67.38
8717;BME280;4395;48.554;8.820;2024-01-30T05:13:39;97170.44;;;2.51;66.68
8717;BME280;4395;48.554;8.820;2024-01-30T05:15:42;97167.81;;;2.59;66.53
8717;BME280;4395;48.554;8.820;2024-01-30T05:17:45;97173.25;;;2.64;66.19
8717;BME280;4395;48.554;8.820;2024-01-30T05:19:48;97174.31;;;2.70;66.04
8717;BME280;4395;48.554;8.820;2024-01-30T05:21:51;97173.53;;;2.69;66.07
8717;BME280;4395;48.554;8.820;2024-01-30T05:23:55;97166.78;;;2.68;65.25
8717;BME280;4395;48.554;8.820;2024-01-30T05:25:57;97179.78;;;2.67;64.60
8717;BME280;4395;48.554;8.820;2024-01-30T05:28:02;97174.22;;;2.63;65.17
8717;BME280;4395;48.554;8.820;2024-01-30T05:30:06;97173.41;;;2.63;65.75
8717;BME280;4395;48.554;8.820;2024-01-30T05:32:10;97174.16;;;2.71;65.80
8717;BME280;4395;48.554;8.820;2024-01-30T05:34:13;97176.38;;;2.74;65.72
8717;BME280;4395;48.554;8.820;2024-01-30T05:36:15;97177.19;;;2.75;65.78
8717;BME280;4395;48.554;8.820;2024-01-30T05:38:17;97183.13;;;2.75;65.91
8717;BME280;4395;48.554;8.820;2024-01-30T05:40:22;97184.38;;;2.79;65.89
8717;BME280;4395;48.554;8.820;2024-01-30T05:42:25;97181.78;;;2.79;65.81
8717;BME280;4395;48.554;8.820;2024-01-30T05:44:28;97176.03;;;2.77;65.56
8717;BME280;4395;48.554;8.820;2024-01-30T05:46:31;97183.13;;;2.75;65.25
8717;BME280;4395;48.554;8.820;2024-01-30T05:48:34;97181.00;;;2.79;64.70
8717;BME280;4395;48.554;8.820;2024-01-30T05:50:37;97181.88;;;2.71;65.39
8717;BME280;4395;48.554;8.820;2024-01-30T05:52:40;97181.53;;;2.74;64.95
8717;BME280;4395;48.554;8.820;2024-01-30T05:54:43;97183.47;;;2.72;65.23
8717;BME280;4395;48.554;8.820;2024-01-30T05:56:47;97190.03;;;2.75;65.44
8717;BME280;4395;48.554;8.820;2024-01-30T05:58:50;97186.78;;;2.81;65.05
8717;BME280;4395;48.554;8.820;2024-01-30T06:00:52;97184.03;;;2.82;64.74
8717;BME280;4395;48.554;8.820;2024-01-30T06:02:55;97183.34;;;2.88;64.79
8717;BME280;4395;48.554;8.820;2024-01-30T06:04:58;97182.38;;;2.89;64.63
8717;BME280;4395;48.554;8.820;2024-01-30T06:07:01;97189.28;;;2.89;64.58
8717;BME280;4395;48.554;8.820;2024-01-30T06:09:05;97190.44;;;2.86;64.27
8717;BME280;4395;48.554;8.820;2024-01-30T06:11:10;97195.59;;;2.86;64.32
8717;BME280;4395;48.554;8.820;2024-01-30T06:13:13;97193.19;;;2.85;64.64
8717;BME280;4395;48.554;8.820;2024-01-30T06:15:16;97195.59;;;2.86;64.54
8717;BME280;4395;48.554;8.820;2024-01-30T06:17:18;97192.25;;;3.01;64.07
8717;BME280;4395;48.554;8.820;2024-01-30T06:19:20;97197.03;;;3.04;63.70
8717;BME280;4395;48.554;8.820;2024-01-30T06:21:23;97188.91;;;3.15;63.28
8717;BME280;4395;48.554;8.820;2024-01-30T06:23:26;97183.53;;;3.24;62.77
8717;BME280;4395;48.554;8.820;2024-01-30T06:25:28;97191.50;;;3.30;62.70
8717;BME280;4395;48.554;8.820;2024-01-30T06:27:31;97198.72;;;3.34;62.36
8717;BME280;4395;48.554;8.820;2024-01-30T06:29:35;97192.41;;;3.37;62.63
8717;BME280;4395;48.554;8.820;2024-01-30T06:31:40;97188.06;;;3.37;62.71
8717;BME280;4395;48.554;8.820;2024-01-30T06:33:43;97190.34;;;3.32;62.97
8717;BME280;4395;48.554;8.820;2024-01-30T06:35:46;97183.44;;;3.33;62.73
8717;BME280;4395;48.554;8.820;2024-01-30T06:37:49;97188.41;;;3.34;62.89
8717;BME280;4395;48.554;8.820;2024-01-30T06:39:52;97186.34;;;3.30;63.24
8717;BME280;4395;48.554;8.820;2024-01-30T06:41:54;97187.16;;;3.30;63.25
8717;BME280;4395;48.554;8.820;2024-01-30T06:43:57;97187.25;;;3.37;63.04
8717;BME280;4395;48.554;8.820;2024-01-30T06:46:01;97191.97;;;3.33;63.45
8717;BME280;4395;48.554;8.820;2024-01-30T06:48:05;97193.09;;;3.31;63.31
8717;BME280;4395;48.554;8.820;2024-01-30T06:50:08;97201.34;;;3.26;63.98
8717;BME280;4395;48.554;8.820;2024-01-30T06:52:11;97200.03;;;3.30;63.98
8717;BME280;4395;48.554;8.820;2024-01-30T06:54:14;97198.72;;;3.34;63.84
8717;BME280;4395;48.554;8.820;2024-01-30T06:56:16;97196.31;;;3.33;64.13
8717;BME280;4395;48.554;8.820;2024-01-30T06:58:22;97199.06;;;3.31;64.57
8717;BME280;4395;48.554;8.820;2024-01-30T07:00:25;97204.66;;;3.35;64.81
8717;BME280;4395;48.554;8.820;2024-01-30T07:02:29;97204.31;;;3.38;65.19
8717;BME280;4395;48.554;8.820;2024-01-30T07:04:32;97204.47;;;3.36;65.74
8717;BME280;4395;48.554;8.820;2024-01-30T07:06:35;97201.53;;;3.39;65.65
8717;BME280;4395;48.554;8.820;2024-01-30T07:08:37;97207.31;;;3.41;65.75
8717;BME280;4395;48.554;8.820;2024-01-30T07:10:41;97214.69;;;3.44;66.08
8717;BME280;4395;48.554;8.820;2024-01-30T07:12:43;97213.00;;;3.51;66.14
8717;BME280;4395;48.554;8.820;2024-01-30T07:14:45;97211.69;;;3.55;66.39
8717;BME280;4395;48.554;8.820;2024-01-30T07:16:48;97220.91;;;3.65;65.98
8717;BME280;4395;48.554;8.820;2024-01-30T07:18:53;97214.44;;;3.69;66.16
8717;BME280;4395;48.554;8.820;2024-01-30T07:20:56;97216.69;;;3.72;66.05
8717;BME280;4395;48.554;8.820;2024-01-30T07:22:58;97216.69;;;3.72;66.21
8717;BME280;4395;48.554;8.820;2024-01-30T07:25:01;97217.91;;;3.76;65.89
8717;BME280;4395;48.554;8.820;2024-01-30T07:27:03;97211.94;;;3.75;65.80
8717;BME280;4395;48.554;8.820;2024-01-30T07:29:07;97220.31;;;3.77;65.80
8717;BME280;4395;48.554;8.820;2024-01-30T07:31:09;97223.97;;;3.83;65.58
8717;BME280;4395;48.554;8.820;2024-01-30T07:33:12;97222.59;;;3.87;65.68
8717;BME280;4395;48.554;8.820;2024-01-30T07:35:17;97217.56;;;3.93;65.24
8717;BME280;4395;48.554;8.820;2024-01-30T07:37:20;97216.41;;;3.96;65.37
8717;BME280;4395;48.554;8.820;2024-01-30T07:39:23;97223.06;;;4.05;65.07
8717;BME280;4395;48.554;8.820;2024-01-30T07:41:25;97215.59;;;4.10;64.66
8717;BME280;4395;48.554;8.820;2024-01-30T07:43:28;97224.56;;;4.14;64.61
8717;BME280;4395;48.554;8.820;2024-01-30T07:45:31;97229.53;;;4.16;64.58
8717;BME280;4395;48.554;8.820;2024-01-30T07:47:34;97221.28;;;4.20;64.37
8717;BME280;4395;48.554;8.820;2024-01-30T07:49:40;97225.69;;;4.26;63.93
8717;BME280;4395;48.554;8.820;2024-01-30T07:51:44;97220.81;;;4.31;63.56
8717;BME280;4395;48.554;8.820;2024-01-30T07:53:54;97220.06;;;4.38;63.29
8717;BME280;4395;48.554;8.820;2024-01-30T07:56:00;97218.72;;;4.42;63.08
8717;BME280;4395;48.554;8.820;2024-01-30T07:58:01;97219.75;;;4.47;62.89
8717;BME280;4395;48.554;8.820;2024-01-30T08:00:07;97223.06;;;4.56;62.31
8717;BME280;4395;48.554;8.820;2024-01-30T08:02:09;97225.34;;;4.65;61.42
8717;BME280;4395;48.554;8.820;2024-01-30T08:04:12;97223.78;;;4.71;61.34
8717;BME280;4395;48.554;8.820;2024-01-30T08:06:15;97224.66;;;4.78;60.85
8717;BME280;4395;48.554;8.820;2024-01-30T08:08:20;97226.31;;;4.86;60.43
8717;BME280;4395;48.554;8.820;2024-01-30T08:10:22;97228.00;;;4.93;60.63
8717;BME280;4395;48.554;8.820;2024-01-30T08:12:25;97227.31;;;5.06;59.94
8717;BME280;4395;48.554;8.820;2024-01-30T08:14:28;97231.72;;;5.12;59.71
8717;BME280;4395;48.554;8.820;2024-01-30T08:16:31;97230.19;;;5.18;59.80
8717;BME280;4395;48.554;8.820;2024-01-30T08:18:34;97229.06;;;5.27;59.57
8717;BME280;4395;48.554;8.820;2024-01-30T08:20:35;97229.91;;;5.34;59.45
8717;BME280;4395;48.554;8.820;2024-01-30T08:22:38;97232.97;;;5.44;59.34
8717;BME280;4395;48.554;8.820;2024-01-30T08:24:43;97228.22;;;5.48;59.42
8717;BME280;4395;48.554;8.820;2024-01-30T08:26:46;97228.88;;;5.56;58.60
8717;BME280;4395;48.554;8.820;2024-01-30T08:28:49;97228.88;;;5.56;58.76
8717;BME280;4395;48.554;8.820;2024-01-30T08:30:51;97225.31;;;5.57;58.72
8717;BME280;4395;48.554;8.820;2024-01-30T08:32:53;97226.91;;;5.58;58.30
8717;BME280;4395;48.554;8.820;2024-01-30T08:34:56;97225.53;;;5.62;58.29
8717;BME280;4395;48.554;8.820;2024-01-30T08:36:59;97224.94;;;5.60;58.82
8717;BME280;4395;48.554;8.820;2024-01-30T08:39:02;97233.91;;;5.64;58.42
8717;BME280;4395;48.554;8.820;2024-01-30T08:41:09;97225.03;;;5.73;58.63
8717;BME280;4395;48.554;8.820;2024-01-30T08:43:11;97231.00;;;5.80;58.16
8717;BME280;4395;48.554;8.820;2024-01-30T08:45:14;97228.34;;;5.95;57.98
8717;BME280;4395;48.554;8.820;2024-01-30T08:47:17;97229.59;;;6.06;57.72
8717;BME280;4395;48.554;8.820;2024-01-30T08:49:20;97230.44;;;6.20;57.16
8717;BME280;4395;48.554;8.820;2024-01-30T08:51:23;97233.66;;;6.28;57.04
8717;BME280;4395;48.554;8.820;2024-01-30T08:53:26;97229.75;;;6.39;56.94
8717;BME280;4395;48.554;8.820;2024-01-30T08:55:29;97232.16;;;6.54;56.07
8717;BME280;4395;48.554;8.820;2024-01-30T08:57:33;97230.41;;;6.61;56.49
8717;BME280;4395;48.554;8.820;2024-01-30T08:59:36;97226.66;;;6.70;55.65
8717;BME280;4395;48.554;8.820;2024-01-30T09:01:38;97228.66;;;6.81;55.78
8717;BME280;4395;48.554;8.820;2024-01-30T09:03:55;97234.25;;;6.91;55.46
8717;BME280;4395;48.554;8.820;2024-01-30T09:05:58;97233.28;;;6.99;55.22
8717;BME280;4395;48.554;8.820;2024-01-30T09:08:01;97231.06;;;7.02;54.55
8717;BME280;4395;48.554;8.820;2024-01-30T09:10:05;97235.06;;;7.05;54.77
8717;BME280;4395;48.554;8.820;2024-01-30T09:12:12;97231.91;;;7.09;54.17
8717;BME280;4395;48.554;8.820;2024-01-30T09:14:17;97236.09;;;7.10;54.04
8717;BME280;4395;48.554;8.820;2024-01-30T09:16:21;97231.50;;;7.19;54.10
8717;BME280;4395;48.554;8.820;2024-01-30T09:18:24;97234.50;;;7.22;53.89
8717;BME280;4395;48.554;8.820;2024-01-30T09:20:25;97235.28;;;7.30;53.76
8717;BME280;4395;48.554;8.820;2024-01-30T09:22:30;97229.91;;;7.38;53.36
8717;BME280;4395;48.554;8.820;2024-01-30T09:24:33;97242.66;;;7.46;53.25
8717;BME280;4395;48.554;8.820;2024-01-30T09:26:36;97240.25;;;7.51;53.17
8717;BME280;4395;48.554;8.820;2024-01-30T09:28:39;97230.69;;;7.58;53.02
8717;BME280;4395;48.554;8.820;2024-01-30T09:30:42;97237.06;;;7.62;52.81
8717;BME280;4395;48.554;8.820;2024-01-30T09:32:45;97234.66;;;7.67;52.81
8717;BME280;4395;48.554;8.820;2024-01-30T09:34:47;97238.63;;;7.76;52.92
8717;BME280;4395;48.554;8.820;2024-01-30T09:36:50;97239.44;;;7.83;52.85
8717;BME280;4395;48.554;8.820;2024-01-30T09:38:52;97239.41;;;7.90;52.12
8717;BME280;4395;48.554;8.820;2024-01-30T09:40:55;97237.38;;;7.99;52.57
8717;BME280;4395;48.554;8.820;2024-01-30T09:42:58;97240.38;;;8.09;51.96
8717;BME280;4395;48.554;8.820;2024-01-30T09:45:03;97243.53;;;8.17;51.90
8717;BME280;4395;48.554;8.820;2024-01-30T09:47:07;97244.09;;;8.26;52.47
8717;BME280;4395;48.554;8.820;2024-01-30T09:49:11;97244.69;;;8.35;52.31
8717;BME280;4395;48.554;8.820;2024-01-30T09:51:14;97242.09;;;8.41;51.97
8717;BME280;4395;48.554;8.820;2024-01-30T09:53:17;97244.84;;;8.46;52.02
8717;BME280;4395;48.554;8.820;2024-01-30T09:55:20;97246.44;;;8.47;51.51
8717;BME280;4395;48.554;8.820;2024-01-30T09:57:23;97251.81;;;8.52;51.68
8717;BME280;4395;48.554;8.820;2024-01-30T09:59:27;97259.19;;;8.55;51.55
8717;BME280;4395;48.554;8.820;2024-01-30T10:01:31;97253.56;;;8.58;51.44
8717;BME280;4395;48.554;8.820;2024-01-30T10:03:35;97244.56;;;8.68;51.70
8717;BME280;4395;48.554;8.820;2024-01-30T10:05:41;97254.28;;;8.79;51.20
8717;BME280;4395;48.554;8.820;2024-01-30T10:07:50;97249.84;;;8.86;51.26
8717;BME280;4395;48.554;8.820;2024-01-30T10:09:55;97251.03;;;8.90;51.04
8717;BME280;4395;48.554;8.820;2024-01-30T10:11:58;97247.38;;;8.97;51.44
8717;BME280;4395;48.554;8.820;2024-01-30T10:14:01;97250.50;;;9.06;51.37
8717;BME280;4395;48.554;8.820;2024-01-30T10:16:04;97250.28;;;9.14;51.32
8717;BME280;4395;48.554;8.820;2024-01-30T10:18:08;97249.00;;;9.23;51.04
8717;BME280;4395;48.554;8.820;2024-01-30T10:20:13;97257.72;;;9.35;50.91
8717;BME280;4395;48.554;8.820;2024-01-30T10:22:16;97251.81;;;9.47;50.72
8717;BME280;4395;48.554;8.820;2024-01-30T10:24:24;97249.75;;;9.55;50.44
8717;BME280;4395;48.554;8.820;2024-01-30T10:26:27;97246.09;;;9.63;50.65
8717;BME280;4395;48.554;8.820;2024-01-30T10:28:30;97239.75;;;9.77;50.17
8717;BME280;4395;48.554;8.820;2024-01-30T10:30:33;97244.69;;;9.85;51.32
8717;BME280;4395;48.554;8.820;2024-01-30T10:32:36;97236.72;;;9.80;51.23
8717;BME280;4395;48.554;8.820;2024-01-30T10:34:39;97246.69;;;9.83;51.68
8717;BME280;4395;48.554;8.820;2024-01-30T10:36:46;97245.09;;;9.82;51.62
8717;BME280;4395;48.554;8.820;2024-01-30T10:38:51;97242.09;;;9.85;51.88
8717;BME280;4395;48.554;8.820;2024-01-30T10:40:56;97243.38;;;9.94;51.63
8717;BME280;4395;48.554;8.820;2024-01-30T10:43:01;97236.44;;;10.06;51.47
8717;BME280;4395;48.554;8.820;2024-01-30T10:45:07;97241.53;;;10.20;51.19
8717;BME280;4395;48.554;8.820;2024-01-30T10:47:12;97241.13;;;10.23;50.47
8717;BME280;4395;48.554;8.820;2024-01-30T10:49:15;97248.19;;;10.34;50.40
8717;BME280;4395;48.554;8.820;2024-01-30T10:51:18;97235.66;;;10.42;50.28
8717;BME280;4395;48.554;8.820;2024-01-30T10:53:25;97239.34;;;10.53;50.18
8717;BME280;4395;48.554;8.820;2024-01-30T10:55:32;97237.47;;;10.60;50.06
8717;BME280;4395;48.554;8.820;2024-01-30T10:57:36;97235.44;;;10.62;50.16
8717;BME280;4395;48.554;8.820;2024-01-30T10:59:40;97233.38;;;10.64;50.03
8717;BME280;4395;48.554;8.820;2024-01-30T11:01:44;97234.97;;;10.65;49.54
8717;BME280;4395;48.554;8.820;2024-01-30T11:03:48;97231.50;;;10.71;50.09
8717;BME280;4395;48.554;8.820;2024-01-30T11:05:52;97228.38;;;10.81;49.88
8717;BME280;4395;48.554;8.820;2024-01-30T11:07:54;97233.81;;;10.91;49.90
8717;BME280;4395;48.554;8.820;2024-01-30T11:10:02;97229.34;;;10.98;49.51
8717;BME280;4395;48.554;8.820;2024-01-30T11:12:05;97228.00;;;11.07;49.21
8717;BME280;4395;48.554;8.820;2024-01-30T11:14:09;97228.91;;;11.13;48.59
8717;BME280;4395;48.554;8.820;2024-01-30T11:16:12;97230.63;;;11.19;48.32
8717;BME280;4395;48.554;8.820;2024-01-30T11:18:22;97222.13;;;11.24;48.10
8717;BME280;4395;48.554;8.820;2024-01-30T11:20:27;97224.84;;;11.29;47.77